Port Imperial New Jersey — WBR3133 — position and weather

sailwx.info

Track history (hours):
 
Tides and Currents Weather Stations Pressure Air Temp Water Temp Dewpoint Dewpoint Depression Visibility Wind Speed Wind Dir Waves Ship Positions

Port Imperial New Jersey

Owner: PORT IMPERIAL FERRY CORP, WEEHAWKEN, NJ. More information available from US FCC via Universal Licensing System and Coast Guard Vessel Documentation Center.

Last reported at 2017-May-29 17:45 UTC. Time now 2017-May-29 18:58 UTC.
Position N 40°46' W 074°01'.

Length 31 m.

Type: Passenger vessel. MMSI: 366990550.

Date/timePositionNaut miles runAvg speedWind from/ knotsBaromVisibWave heightAir tempDewpointWater temp
2017-May-29 17:45N 40°46' W 074°01'1 4.1
2017-May-29 17:30N 40°45' W 074°01'3 6.5
2017-May-29 17:00N 40°42' W 074°02'4 7.3
2017-May-29 16:30N 40°46' W 074°00'4 8.7
2017-May-29 16:01N 40°42' W 074°02'4 8.5
2017-May-29 15:30N 40°46' W 074°00'0 0.3
2017-May-29 15:00N 40°46' W 074°00'1 1.5
2017-May-29 14:30N 40°46' W 074°01'0 0.0
2017-May-28 17:54N 40°46' W 074°01'3 7.5
2017-May-28 17:30N 40°43' W 074°01'1 1.4
2017-May-28 17:00N 40°44' W 074°01'0 1.0
2017-May-28 16:30N 40°44' W 074°01'0 0.0
2017-May-28 16:00N 40°44' W 074°01'1 2.7
2017-May-28 15:30N 40°45' W 074°01'2 4.4
2017-May-28 15:00N 40°43' W 074°02'4 7.1
2017-May-28 14:30N 40°46' W 074°01'0 0.0
2017-May-27 19:10N 40°46' W 074°01'0 2.2
2017-May-27 19:00N 40°47' W 074°01'1 1.9
2017-May-27 18:30N 40°46' W 074°00'1 1.8
2017-May-27 18:00N 40°47' W 074°01'2 4.3
2017-May-27 17:30N 40°44' W 074°01'2 3.3
2017-May-27 17:00N 40°43' W 074°02'2 4.7
2017-May-27 16:30N 40°45' W 074°01'3 5.5
2017-May-27 16:00N 40°42' W 074°02'3 6.6
2017-May-27 15:30N 40°46' W 074°00'0 0.1
2017-May-27 15:00N 40°46' W 074°00'0 0.9
2017-May-27 14:30N 40°46' W 074°01'0 0.0
2017-May-26 22:40N 40°46' W 074°01'0 0.4
2017-May-26 22:30N 40°46' W 074°01'1 1.8
2017-May-26 22:00N 40°46' W 074°01'0 0.1
2017-May-26 21:31N 40°45' W 074°01'0 0.1
2017-May-26 21:00N 40°46' W 074°01'0 0.0
2017-May-26 20:30N 40°46' W 074°01'0 0.0
2017-May-26 20:01N 40°46' W 074°01'1 0.3
2017-May-26 16:52N 40°46' W 074°01'1 3.4
2017-May-26 16:31N 40°45' W 074°01'3 6.0
2017-May-26 16:00N 40°42' W 074°02'4 7.2
2017-May-26 15:30N 40°46' W 074°00'0 0.2
2017-May-26 15:00N 40°46' W 074°00'0 0.1
2017-May-26 14:30N 40°46' W 074°00'1 0.8
2017-May-26 13:30N 40°46' W 074°01'0 0.0
2017-May-26 13:00N 40°46' W 074°01'0 0.0
2017-May-26 12:30N 40°46' W 074°01'0 0.0
2017-May-26 12:00N 40°46' W 074°01'0 0.1
2017-May-26 11:30N 40°45' W 074°01'1 1.6
2017-May-26 11:00N 40°46' W 074°00'1 1.9
2017-May-26 10:30N 40°47' W 074°01'0 0.0
2017-May-25 23:08N 40°47' W 074°01'0 0.2
2017-May-25 23:00N 40°47' W 074°01'1 2.4
2017-May-25 22:30N 40°46' W 074°01'0 0.0
2017-May-25 22:00N 40°46' W 074°01'0 0.0
2017-May-25 21:30N 40°45' W 074°01'0 0.0
2017-May-25 21:00N 40°46' W 074°01'0 0.0
2017-May-25 20:30N 40°46' W 074°01'0 0.8
2017-May-25 20:00N 40°45' W 074°01'1 0.8
2017-May-25 18:56N 40°46' W 074°01'1 3.4
2017-May-25 18:31N 40°45' W 074°01'3 6.4
2017-May-25 18:00N 40°42' W 074°02'3 6.5
2017-May-25 17:30N 40°45' W 074°01'2 4.8
2017-May-25 17:00N 40°43' W 074°02'3 6.5
2017-May-25 16:30N 40°46' W 074°00'4 8.0
2017-May-25 16:00N 40°42' W 074°02'4 8.0
2017-May-25 15:31N 40°46' W 074°00'0 0.0
2017-May-25 15:00N 40°46' W 074°00'0 0.2
2017-May-25 14:30N 40°46' W 074°00'1 0.7
2017-May-25 13:30N 40°46' W 074°01'0 0.0
2017-May-25 13:00N 40°46' W 074°01'0 0.0
2017-May-25 12:30N 40°46' W 074°01'0 0.0
2017-May-25 12:00N 40°46' W 074°01'0 0.1
2017-May-25 11:30N 40°46' W 074°01'1 1.2
2017-May-25 11:00N 40°46' W 074°01'0 0.0
2017-May-25 01:03N 40°46' W 074°01'0 0.0
2017-May-24 22:47N 40°46' W 074°01'1 3.2
2017-May-24 22:30N 40°46' W 074°01'0 0.1
2017-May-24 22:00N 40°45' W 074°01'0 0.1
2017-May-24 21:30N 40°46' W 074°01'0 0.0
2017-May-24 21:00N 40°46' W 074°01'0 0.0
2017-May-24 20:30N 40°46' W 074°01'0 0.4
2017-May-24 20:00N 40°45' W 074°01'1 0.5
2017-May-24 17:50N 40°46' W 074°01'1 4.2
2017-May-24 17:31N 40°45' W 074°01'3 6.1
2017-May-24 17:01N 40°42' W 074°02'4 7.6
2017-May-24 16:30N 40°46' W 074°00'5 9.4
2017-May-24 16:00N 40°41' W 074°03'5 9.2
2017-May-24 15:30N 40°46' W 074°00'0 0.0
2017-May-24 15:00N 40°46' W 074°00'1 0.8
2017-May-24 14:00N 40°46' W 074°01'0 0.1
2017-May-24 13:30N 40°45' W 074°01'0 0.1
2017-May-24 13:00N 40°46' W 074°01'0 0.0
2017-May-24 12:30N 40°45' W 074°01'0 0.0
2017-May-24 12:00N 40°45' W 074°01'0 0.1
2017-May-24 11:30N 40°45' W 074°01'1 1.4
2017-May-24 11:00N 40°46' W 074°00'1 1.4
2017-May-24 10:30N 40°46' W 074°01'0 0.0
2017-May-23 23:46N 40°46' W 074°01'2 8.6
2017-May-23 23:30N 40°44' W 074°02'1 1.9
2017-May-23 23:00N 40°43' W 074°01'1 2.5
2017-May-23 22:30N 40°42' W 074°00'2 4.3
2017-May-23 22:00N 40°44' W 074°02'1 1.9
2017-May-23 21:30N 40°43' W 074°01'1 2.5
2017-May-23 21:00N 40°42' W 074°00'2 4.3
2017-May-23 20:30N 40°44' W 074°02'1 2.3
2017-May-23 20:00N 40°43' W 074°02'1 2.4
2017-May-23 19:30N 40°44' W 074°02'1 2.8
2017-May-23 19:00N 40°43' W 074°01'1 2.6
2017-May-23 18:31N 40°44' W 074°01'1 1.7
2017-May-23 18:01N 40°43' W 074°01'3 6.3
2017-May-23 17:30N 40°46' W 074°01'0 0.0
2017-May-23 17:00N 40°46' W 074°01'1 1.6
2017-May-23 16:30N 40°45' W 074°01'5 9.2
2017-May-23 16:00N 40°41' W 074°03'5 9.6
2017-May-23 15:30N 40°46' W 074°00'0 0.0
2017-May-23 15:00N 40°46' W 074°00'0 0.0
2017-May-23 14:30N 40°46' W 074°00'1 0.8
2017-May-23 13:31N 40°46' W 074°01'0 0.0
2017-May-23 13:00N 40°45' W 074°01'0 0.1
2017-May-23 12:30N 40°46' W 074°01'0 0.0
2017-May-23 12:00N 40°46' W 074°01'0 0.0
2017-May-23 11:30N 40°46' W 074°01'1 1.5
2017-May-23 11:00N 40°46' W 074°00'1 0.1
2017-May-22 22:45N 40°47' W 074°01'1 5.1
2017-May-22 22:30N 40°46' W 074°01'0 0.0
2017-May-22 22:00N 40°45' W 074°01'0 0.1
2017-May-22 21:30N 40°46' W 074°01'0 0.1
2017-May-22 21:00N 40°46' W 074°01'0 0.0
2017-May-22 20:30N 40°45' W 074°01'0 0.0
2017-May-22 20:00N 40°46' W 074°01'0 0.0
2017-May-22 14:00N 40°45' W 074°01'0 0.1
2017-May-22 13:30N 40°45' W 074°01'1 0.1
2017-May-21 23:21N 40°46' W 074°01'3 8.5
2017-May-21 23:00N 40°43' W 074°01'1 2.9
2017-May-21 22:30N 40°42' W 074°01'0 0.9
2017-May-21 22:00N 40°42' W 074°01'0 1.0
2017-May-21 21:30N 40°42' W 074°01'0 1.0
2017-May-21 21:00N 40°42' W 074°01'0 0.9
2017-May-21 20:30N 40°42' W 074°01'0 0.9
2017-May-21 20:00N 40°42' W 074°01'0 0.9
2017-May-21 19:30N 40°42' W 074°01'1 2.5
2017-May-21 19:00N 40°43' W 074°02'0 0.1
2017-May-21 18:30N 40°43' W 074°02'0 0.0
2017-May-21 18:00N 40°43' W 074°02'2 4.9
2017-May-21 17:31N 40°45' W 074°01'4 7.4
2017-May-21 17:01N 40°42' W 074°02'4 8.5
2017-May-21 16:30N 40°46' W 074°00'5 9.4
2017-May-21 16:00N 40°41' W 074°03'5 9.5
2017-May-21 15:30N 40°46' W 074°00'4 7.9
2017-May-21 15:00N 40°42' W 074°02'4 7.8
2017-May-21 14:30N 40°46' W 074°00'1 0.7
2017-May-21 13:30N 40°46' W 074°01'0 0.0
2017-May-21 13:00N 40°46' W 074°01'0 0.0
2017-May-21 01:34N 40°46' W 074°01'0 0.1
2017-May-21 01:31N 40°46' W 074°01'4 7.1
2017-May-21 01:01N 40°43' W 074°02'0 0.1
2017-May-21 00:30N 40°43' W 074°02'0 0.1
2017-May-21 00:00N 40°43' W 074°02'0 0.0
2017-May-20 23:30N 40°43' W 074°02'0 0.0
2017-May-20 23:00N 40°43' W 074°02'0 0.0
2017-May-20 22:30N 40°43' W 074°02'0 0.0
2017-May-20 22:01N 40°43' W 074°02'0 0.0
2017-May-20 21:30N 40°43' W 074°02'0 0.0
2017-May-20 21:00N 40°43' W 074°02'0 0.0
2017-May-20 20:30N 40°43' W 074°02'0 0.0
2017-May-20 20:00N 40°43' W 074°02'0 0.0
2017-May-20 19:30N 40°43' W 074°02'0 0.0
2017-May-20 19:01N 40°43' W 074°02'0 0.0
2017-May-20 18:30N 40°43' W 074°02'0 0.0
2017-May-20 18:00N 40°43' W 074°02'2 4.8
2017-May-20 17:30N 40°45' W 074°01'4 7.7
2017-May-20 17:00N 40°41' W 074°02'4 8.9
2017-May-20 16:30N 40°46' W 074°00'5 9.3
2017-May-20 16:00N 40°41' W 074°03'5 9.4
2017-May-20 15:30N 40°46' W 074°00'0 0.0
2017-May-20 15:00N 40°46' W 074°00'1 1.5
2017-May-20 14:30N 40°46' W 074°01'0 0.0
2017-May-19 23:27N 40°46' W 074°01'1 1.3
2017-May-19 23:00N 40°46' W 074°00'1 1.5
2017-May-19 22:30N 40°46' W 074°01'0 0.0
2017-May-19 22:01N 40°46' W 074°01'0 0.0
2017-May-19 21:30N 40°46' W 074°01'0 0.1
2017-May-19 21:01N 40°45' W 074°01'0 0.1
2017-May-19 20:31N 40°46' W 074°01'0 0.0
2017-May-19 20:00N 40°46' W 074°01'1 1.8
2017-May-19 19:31N 40°46' W 074°01'0 0.0
2017-May-19 19:00N 40°46' W 074°01'0 0.0
2017-May-19 18:31N 40°46' W 074°01'0 0.0
2017-May-19 18:00N 40°46' W 074°01'  
Track history (hours):
 
Tides and Currents Weather Stations Pressure Air Temp Water Temp Dewpoint Dewpoint Depression Visibility Wind Speed Wind Dir Waves Ship Positions

Port Imperial New Jersey

Owner: PORT IMPERIAL FERRY CORP, WEEHAWKEN, NJ. More information available from US FCC via Universal Licensing System and Coast Guard Vessel Documentation Center.

Last reported at 2017-May-29 17:45 UTC. Time now 2017-May-29 18:58 UTC.
Position N 40°46' W 074°01'.

Length 31 m.

Type: Passenger vessel. MMSI: 366990550.

Date/timePositionNaut miles runAvg speedWind from/ knotsBaromVisibWave heightAir tempDewpointWater temp
2017-May-29 17:45N 40°46' W 074°01'1 4.1
2017-May-29 17:30N 40°45' W 074°01'3 6.5
2017-May-29 17:00N 40°42' W 074°02'4 7.3
2017-May-29 16:30N 40°46' W 074°00'4 8.7
2017-May-29 16:01N 40°42' W 074°02'4 8.5
2017-May-29 15:30N 40°46' W 074°00'0 0.3
2017-May-29 15:00N 40°46' W 074°00'1 1.5
2017-May-29 14:30N 40°46' W 074°01'0 0.0
2017-May-28 17:54N 40°46' W 074°01'3 7.5
2017-May-28 17:30N 40°43' W 074°01'1 1.4
2017-May-28 17:00N 40°44' W 074°01'0 1.0
2017-May-28 16:30N 40°44' W 074°01'0 0.0
2017-May-28 16:00N 40°44' W 074°01'1 2.7
2017-May-28 15:30N 40°45' W 074°01'2 4.4
2017-May-28 15:00N 40°43' W 074°02'4 7.1
2017-May-28 14:30N 40°46' W 074°01'0 0.0
2017-May-27 19:10N 40°46' W 074°01'0 2.2
2017-May-27 19:00N 40°47' W 074°01'1 1.9
2017-May-27 18:30N 40°46' W 074°00'1 1.8
2017-May-27 18:00N 40°47' W 074°01'2 4.3
2017-May-27 17:30N 40°44' W 074°01'2 3.3
2017-May-27 17:00N 40°43' W 074°02'2 4.7
2017-May-27 16:30N 40°45' W 074°01'3 5.5
2017-May-27 16:00N 40°42' W 074°02'3 6.6
2017-May-27 15:30N 40°46' W 074°00'0 0.1
2017-May-27 15:00N 40°46' W 074°00'0 0.9
2017-May-27 14:30N 40°46' W 074°01'0 0.0
2017-May-26 22:40N 40°46' W 074°01'0 0.4
2017-May-26 22:30N 40°46' W 074°01'1 1.8
2017-May-26 22:00N 40°46' W 074°01'0 0.1
2017-May-26 21:31N 40°45' W 074°01'0 0.1
2017-May-26 21:00N 40°46' W 074°01'0 0.0
2017-May-26 20:30N 40°46' W 074°01'0 0.0
2017-May-26 20:01N 40°46' W 074°01'1 0.3
2017-May-26 16:52N 40°46' W 074°01'1 3.4
2017-May-26 16:31N 40°45' W 074°01'3 6.0
2017-May-26 16:00N 40°42' W 074°02'4 7.2
2017-May-26 15:30N 40°46' W 074°00'0 0.2
2017-May-26 15:00N 40°46' W 074°00'0 0.1
2017-May-26 14:30N 40°46' W 074°00'1 0.8
2017-May-26 13:30N 40°46' W 074°01'0 0.0
2017-May-26 13:00N 40°46' W 074°01'0 0.0
2017-May-26 12:30N 40°46' W 074°01'0 0.0
2017-May-26 12:00N 40°46' W 074°01'0 0.1
2017-May-26 11:30N 40°45' W 074°01'1 1.6
2017-May-26 11:00N 40°46' W 074°00'1 1.9
2017-May-26 10:30N 40°47' W 074°01'0 0.0
2017-May-25 23:08N 40°47' W 074°01'0 0.2
2017-May-25 23:00N 40°47' W 074°01'1 2.4
2017-May-25 22:30N 40°46' W 074°01'0 0.0
2017-May-25 22:00N 40°46' W 074°01'0 0.0
2017-May-25 21:30N 40°45' W 074°01'0 0.0
2017-May-25 21:00N 40°46' W 074°01'0 0.0
2017-May-25 20:30N 40°46' W 074°01'0 0.8
2017-May-25 20:00N 40°45' W 074°01'1 0.8
2017-May-25 18:56N 40°46' W 074°01'1 3.4
2017-May-25 18:31N 40°45' W 074°01'3 6.4
2017-May-25 18:00N 40°42' W 074°02'3 6.5
2017-May-25 17:30N 40°45' W 074°01'2 4.8
2017-May-25 17:00N 40°43' W 074°02'3 6.5
2017-May-25 16:30N 40°46' W 074°00'4 8.0
2017-May-25 16:00N 40°42' W 074°02'4 8.0
2017-May-25 15:31N 40°46' W 074°00'0 0.0
2017-May-25 15:00N 40°46' W 074°00'0 0.2
2017-May-25 14:30N 40°46' W 074°00'1 0.7
2017-May-25 13:30N 40°46' W 074°01'0 0.0
2017-May-25 13:00N 40°46' W 074°01'0 0.0
2017-May-25 12:30N 40°46' W 074°01'0 0.0
2017-May-25 12:00N 40°46' W 074°01'0 0.1
2017-May-25 11:30N 40°46' W 074°01'1 1.2
2017-May-25 11:00N 40°46' W 074°01'0 0.0
2017-May-25 01:03N 40°46' W 074°01'0 0.0
2017-May-24 22:47N 40°46' W 074°01'1 3.2
2017-May-24 22:30N 40°46' W 074°01'0 0.1
2017-May-24 22:00N 40°45' W 074°01'0 0.1
2017-May-24 21:30N 40°46' W 074°01'0 0.0
2017-May-24 21:00N 40°46' W 074°01'0 0.0
2017-May-24 20:30N 40°46' W 074°01'0 0.4
2017-May-24 20:00N 40°45' W 074°01'1 0.5
2017-May-24 17:50N 40°46' W 074°01'1 4.2
2017-May-24 17:31N 40°45' W 074°01'3 6.1
2017-May-24 17:01N 40°42' W 074°02'4 7.6
2017-May-24 16:30N 40°46' W 074°00'5 9.4
2017-May-24 16:00N 40°41' W 074°03'5 9.2
2017-May-24 15:30N 40°46' W 074°00'0 0.0
2017-May-24 15:00N 40°46' W 074°00'1 0.8
2017-May-24 14:00N 40°46' W 074°01'0 0.1
2017-May-24 13:30N 40°45' W 074°01'0 0.1
2017-May-24 13:00N 40°46' W 074°01'0 0.0
2017-May-24 12:30N 40°45' W 074°01'0 0.0
2017-May-24 12:00N 40°45' W 074°01'0 0.1
2017-May-24 11:30N 40°45' W 074°01'1 1.4
2017-May-24 11:00N 40°46' W 074°00'1 1.4
2017-May-24 10:30N 40°46' W 074°01'0 0.0
2017-May-23 23:46N 40°46' W 074°01'2 8.6
2017-May-23 23:30N 40°44' W 074°02'1 1.9
2017-May-23 23:00N 40°43' W 074°01'1 2.5
2017-May-23 22:30N 40°42' W 074°00'2 4.3
2017-May-23 22:00N 40°44' W 074°02'1 1.9
2017-May-23 21:30N 40°43' W 074°01'1 2.5
2017-May-23 21:00N 40°42' W 074°00'2 4.3
2017-May-23 20:30N 40°44' W 074°02'1 2.3
2017-May-23 20:00N 40°43' W 074°02'1 2.4
2017-May-23 19:30N 40°44' W 074°02'1 2.8
2017-May-23 19:00N 40°43' W 074°01'1 2.6
2017-May-23 18:31N 40°44' W 074°01'1 1.7
2017-May-23 18:01N 40°43' W 074°01'3 6.3
2017-May-23 17:30N 40°46' W 074°01'0 0.0
2017-May-23 17:00N 40°46' W 074°01'1 1.6
2017-May-23 16:30N 40°45' W 074°01'5 9.2
2017-May-23 16:00N 40°41' W 074°03'5 9.6
2017-May-23 15:30N 40°46' W 074°00'0 0.0
2017-May-23 15:00N 40°46' W 074°00'0 0.0
2017-May-23 14:30N 40°46' W 074°00'1 0.8
2017-May-23 13:31N 40°46' W 074°01'0 0.0
2017-May-23 13:00N 40°45' W 074°01'0 0.1
2017-May-23 12:30N 40°46' W 074°01'0 0.0
2017-May-23 12:00N 40°46' W 074°01'0 0.0
2017-May-23 11:30N 40°46' W 074°01'1 1.5
2017-May-23 11:00N 40°46' W 074°00'1 0.1
2017-May-22 22:45N 40°47' W 074°01'1 5.1
2017-May-22 22:30N 40°46' W 074°01'0 0.0
2017-May-22 22:00N 40°45' W 074°01'0 0.1
2017-May-22 21:30N 40°46' W 074°01'0 0.1
2017-May-22 21:00N 40°46' W 074°01'0 0.0
2017-May-22 20:30N 40°45' W 074°01'0 0.0
2017-May-22 20:00N 40°46' W 074°01'0 0.0
2017-May-22 14:00N 40°45' W 074°01'0 0.1
2017-May-22 13:30N 40°45' W 074°01'1 0.1
2017-May-21 23:21N 40°46' W 074°01'3 8.5
2017-May-21 23:00N 40°43' W 074°01'1 2.9
2017-May-21 22:30N 40°42' W 074°01'0 0.9
2017-May-21 22:00N 40°42' W 074°01'0 1.0
2017-May-21 21:30N 40°42' W 074°01'0 1.0
2017-May-21 21:00N 40°42' W 074°01'0 0.9
2017-May-21 20:30N 40°42' W 074°01'0 0.9
2017-May-21 20:00N 40°42' W 074°01'0 0.9
2017-May-21 19:30N 40°42' W 074°01'1 2.5
2017-May-21 19:00N 40°43' W 074°02'0 0.1
2017-May-21 18:30N 40°43' W 074°02'0 0.0
2017-May-21 18:00N 40°43' W 074°02'2 4.9
2017-May-21 17:31N 40°45' W 074°01'4 7.4
2017-May-21 17:01N 40°42' W 074°02'4 8.5
2017-May-21 16:30N 40°46' W 074°00'5 9.4
2017-May-21 16:00N 40°41' W 074°03'5 9.5
2017-May-21 15:30N 40°46' W 074°00'4 7.9
2017-May-21 15:00N 40°42' W 074°02'4 7.8
2017-May-21 14:30N 40°46' W 074°00'1 0.7
2017-May-21 13:30N 40°46' W 074°01'0 0.0
2017-May-21 13:00N 40°46' W 074°01'0 0.0
2017-May-21 01:34N 40°46' W 074°01'0 0.1
2017-May-21 01:31N 40°46' W 074°01'4 7.1
2017-May-21 01:01N 40°43' W 074°02'0 0.1
2017-May-21 00:30N 40°43' W 074°02'0 0.1
2017-May-21 00:00N 40°43' W 074°02'0 0.0
2017-May-20 23:30N 40°43' W 074°02'0 0.0
2017-May-20 23:00N 40°43' W 074°02'0 0.0
2017-May-20 22:30N 40°43' W 074°02'0 0.0
2017-May-20 22:01N 40°43' W 074°02'0 0.0
2017-May-20 21:30N 40°43' W 074°02'0 0.0
2017-May-20 21:00N 40°43' W 074°02'0 0.0
2017-May-20 20:30N 40°43' W 074°02'0 0.0
2017-May-20 20:00N 40°43' W 074°02'0 0.0
2017-May-20 19:30N 40°43' W 074°02'0 0.0
2017-May-20 19:01N 40°43' W 074°02'0 0.0
2017-May-20 18:30N 40°43' W 074°02'0 0.0
2017-May-20 18:00N 40°43' W 074°02'2 4.8
2017-May-20 17:30N 40°45' W 074°01'4 7.7
2017-May-20 17:00N 40°41' W 074°02'4 8.9
2017-May-20 16:30N 40°46' W 074°00'5 9.3
2017-May-20 16:00N 40°41' W 074°03'5 9.4
2017-May-20 15:30N 40°46' W 074°00'0 0.0
2017-May-20 15:00N 40°46' W 074°00'1 1.5
2017-May-20 14:30N 40°46' W 074°01'0 0.0
2017-May-19 23:27N 40°46' W 074°01'1 1.3
2017-May-19 23:00N 40°46' W 074°00'1 1.5
2017-May-19 22:30N 40°46' W 074°01'0 0.0
2017-May-19 22:01N 40°46' W 074°01'0 0.0
2017-May-19 21:30N 40°46' W 074°01'0 0.1
2017-May-19 21:01N 40°45' W 074°01'0 0.1
2017-May-19 20:31N 40°46' W 074°01'0 0.0
2017-May-19 20:00N 40°46' W 074°01'1 1.8
2017-May-19 19:31N 40°46' W 074°01'0 0.0
2017-May-19 19:00N 40°46' W 074°01'0 0.0
2017-May-19 18:31N 40°46' W 074°01'0 0.0
2017-May-19 18:00N 40°46' W 074°01'  

Dump ship's entire track history